South Ryegate, VT (05069)

6:26 AM EDT on May 05, 2015 (GMT -0400)
ROGERs Station | | Change Station
CLOSE
Current Station
Personal Weather Station
Location: Ryegate, VT
Elevation: 630 ft
Nearby Weather Stations

Elev 630 ft 44.20 °N, 72.07 °W | Updated 23 seconds ago

Overcast
Overcast
52.9 °F
Feels Like 52.9 °F
N
3.1
Wind Variable Wind from West

Today
High -- | Low -- °F
--% Chance of Precip.
Yesterday
High -- | Low -- °F
Precip. -- in
5:34 AM 7:56 PM
Full, 98% visible
Pressure 30.20 in
Visibility 10.0 miles
Clouds Few 3500 ft
Mostly Cloudy 4500 ft
Dew Point 52 °F
Humidity 95%
Rainfall 0.00 in
Snow Depth Not available.
UV 0 out of 12
Pollen 11.20 out of 12
Air Quality Not available.
Flu Activity Regional
METAR KMPV 050951Z AUTO 29007KT 10SM FEW035 BKN045 13/09 A3021 RMK AO2 SLP226 T01330094

More Conditions Fewer Conditions

Pressure 30.20 in
Visibility 10.0 miles
Clouds Few 3500 ft
Mostly Cloudy 4500 ft
Dew Point 52 °F
Humidity 95%
Rainfall 0.00 in
Snow Depth Not available.
UV 0 out of 12
Pollen 11.20 out of 12
Air Quality Not available.
Flu Activity Regional
METAR KMPV 050951Z AUTO 29007KT 10SM FEW035 BKN045 13/09 A3021 RMK AO2 SLP226 T01330094

More Conditions Fewer Conditions

Nepal has a long way to go to dig out and rebuild from a devastating earthquake. We have teamed up with several charities and organizations to make contributing to the relief effort as easy as possible.
How you can help: Portlight Strategies | Red Cross

10-Day Weather Forecast

Almanac

Astronomy

May. 05, 2015 Rise Set
Actual Time
Civil Twilight
Nautical Twilight
Astronomical Twilight
Moon
Length of Visible Light
Length of Day
Tomorrow will be .
, % of the Moon is Illuminated

Today's Extremes

State Highs State Lows

Community

WunderPhotos

Upload Photos

1,818,828 photos uploaded!

WunderBlogs® & News

Nearby

Air Quality

  Air Quality AQ Index Pollutant
Not available.

Snow Depth

Station Depth Elevation

Earthquake Activity

City Distance Mag. Time & Date
Minimum magnitude displayed is 2.5.

Coastal Water Temperatures

Place Temperature

Stations

Nearby Weather Stations

Station Location Temp. Windchill Dew Point Humidity Wind Precip. Elev Updated Type